sensor_id;sensor_type;location;lat;lon;timestamp;temperature;humidity
37410;DHT22;23275;48.914;12.566;2023-01-15T00:01:26;6.10;99.90
37410;DHT22;23275;48.914;12.566;2023-01-15T00:03:54;6.10;99.90
37410;DHT22;23275;48.914;12.566;2023-01-15T00:06:20;6.00;99.90
37410;DHT22;23275;48.914;12.566;2023-01-15T00:08:46;6.10;99.90
37410;DHT22;23275;48.914;12.566;2023-01-15T00:11:12;6.10;99.90
37410;DHT22;23275;48.914;12.566;2023-01-15T00:13:38;6.10;99.90
37410;DHT22;23275;48.914;12.566;2023-01-15T00:16:19;6.00;99.90
37410;DHT22;23275;48.914;12.566;2023-01-15T00:18:58;6.10;99.90
37410;DHT22;23275;48.914;12.566;2023-01-15T00:21:26;6.00;99.90
37410;DHT22;23275;48.914;12.566;2023-01-15T00:23:52;6.00;99.90
37410;DHT22;23275;48.914;12.566;2023-01-15T00:26:36;6.00;99.90
37410;DHT22;23275;48.914;12.566;2023-01-15T00:29:22;6.00;99.90
37410;DHT22;23275;48.914;12.566;2023-01-15T00:31:58;6.00;99.90
37410;DHT22;23275;48.914;12.566;2023-01-15T00:34:25;6.00;99.90
37410;DHT22;23275;48.914;12.566;2023-01-15T00:36:51;6.00;99.90
37410;DHT22;23275;48.914;12.566;2023-01-15T00:39:17;6.00;99.90
37410;DHT22;23275;48.914;12.566;2023-01-15T00:41:42;6.00;99.90
37410;DHT22;23275;48.914;12.566;2023-01-15T00:44:08;6.00;99.90
37410;DHT22;23275;48.914;12.566;2023-01-15T00:46:34;6.00;99.90
37410;DHT22;23275;48.914;12.566;2023-01-15T00:48:59;6.00;99.90
37410;DHT22;23275;48.914;12.566;2023-01-15T00:51:25;6.00;99.90
37410;DHT22;23275;48.914;12.566;2023-01-15T00:53:50;5.90;99.90
37410;DHT22;23275;48.914;12.566;2023-01-15T00:56:16;5.90;99.90
37410;DHT22;23275;48.914;12.566;2023-01-15T00:58:41;5.90;99.90
37410;DHT22;23275;48.914;12.566;2023-01-15T01:01:07;5.90;99.90
37410;DHT22;23275;48.914;12.566;2023-01-15T01:03:33;6.00;99.90
37410;DHT22;23275;48.914;12.566;2023-01-15T01:06:00;6.00;99.90
37410;DHT22;23275;48.914;12.566;2023-01-15T01:08:26;6.00;99.90
37410;DHT22;23275;48.914;12.566;2023-01-15T01:11:04;6.00;99.90
37410;DHT22;23275;48.914;12.566;2023-01-15T01:13:30;6.00;99.90
37410;DHT22;23275;48.914;12.566;2023-01-15T01:15:56;6.00;99.90
37410;DHT22;23275;48.914;12.566;2023-01-15T01:18:21;6.00;99.90
37410;DHT22;23275;48.914;12.566;2023-01-15T01:20:47;6.00;99.90
37410;DHT22;23275;48.914;12.566;2023-01-15T01:23:12;6.00;99.90
37410;DHT22;23275;48.914;12.566;2023-01-15T01:25:38;6.00;99.90
37410;DHT22;23275;48.914;12.566;2023-01-15T01:28:04;6.00;99.90
37410;DHT22;23275;48.914;12.566;2023-01-15T01:30:29;6.00;99.90
37410;DHT22;23275;48.914;12.566;2023-01-15T01:32:55;6.00;99.90
37410;DHT22;23275;48.914;12.566;2023-01-15T01:35:20;6.00;99.90
37410;DHT22;23275;48.914;12.566;2023-01-15T01:37:50;6.00;99.90
37410;DHT22;23275;48.914;12.566;2023-01-15T01:40:16;6.00;99.90
37410;DHT22;23275;48.914;12.566;2023-01-15T01:42:41;6.00;99.90
37410;DHT22;23275;48.914;12.566;2023-01-15T01:45:27;6.00;99.90
37410;DHT22;23275;48.914;12.566;2023-01-15T01:47:56;6.10;99.90
37410;DHT22;23275;48.914;12.566;2023-01-15T01:50:24;6.10;99.90
37410;DHT22;23275;48.914;12.566;2023-01-15T01:52:54;6.00;99.90
37410;DHT22;23275;48.914;12.566;2023-01-15T01:55:22;6.00;99.90
37410;DHT22;23275;48.914;12.566;2023-01-15T01:57:51;6.00;99.90
37410;DHT22;23275;48.914;12.566;2023-01-15T02:00:17;6.00;99.90
37410;DHT22;23275;48.914;12.566;2023-01-15T02:02:44;5.90;99.90
37410;DHT22;23275;48.914;12.566;2023-01-15T02:05:18;5.90;99.90
37410;DHT22;23275;48.914;12.566;2023-01-15T02:07:45;5.90;99.90
37410;DHT22;23275;48.914;12.566;2023-01-15T02:10:15;5.90;99.90
37410;DHT22;23275;48.914;12.566;2023-01-15T02:12:41;5.90;99.90
37410;DHT22;23275;48.914;12.566;2023-01-15T02:15:27;5.90;99.90
37410;DHT22;23275;48.914;12.566;2023-01-15T02:17:55;5.80;99.90
37410;DHT22;23275;48.914;12.566;2023-01-15T02:20:38;5.80;99.90
37410;DHT22;23275;48.914;12.566;2023-01-15T02:28:33;5.70;99.90
37410;DHT22;23275;48.914;12.566;2023-01-15T02:31:11;5.70;99.90
37410;DHT22;23275;48.914;12.566;2023-01-15T02:33:46;5.70;99.90
37410;DHT22;23275;48.914;12.566;2023-01-15T02:36:14;5.70;99.90
37410;DHT22;23275;48.914;12.566;2023-01-15T02:38:45;5.70;99.90
37410;DHT22;23275;48.914;12.566;2023-01-15T02:41:11;5.60;99.90
37410;DHT22;23275;48.914;12.566;2023-01-15T02:43:45;5.60;99.90
37410;DHT22;23275;48.914;12.566;2023-01-15T02:46:14;5.60;99.90
37410;DHT22;23275;48.914;12.566;2023-01-15T02:48:42;5.50;99.90
37410;DHT22;23275;48.914;12.566;2023-01-15T02:51:14;5.50;99.90
37410;DHT22;23275;48.914;12.566;2023-01-15T02:53:42;5.40;99.90
37410;DHT22;23275;48.914;12.566;2023-01-15T02:56:12;5.40;99.90
37410;DHT22;23275;48.914;12.566;2023-01-15T02:58:41;5.40;99.90
37410;DHT22;23275;48.914;12.566;2023-01-15T03:01:14;5.30;99.90
37410;DHT22;23275;48.914;12.566;2023-01-15T03:03:49;5.30;99.90
37410;DHT22;23275;48.914;12.566;2023-01-15T03:06:48;5.30;99.90
37410;DHT22;23275;48.914;12.566;2023-01-15T03:09:16;5.20;99.90
37410;DHT22;23275;48.914;12.566;2023-01-15T03:17:52;5.20;99.90
37410;DHT22;23275;48.914;12.566;2023-01-15T03:20:24;5.20;99.90
37410;DHT22;23275;48.914;12.566;2023-01-15T03:22:54;5.20;99.90
37410;DHT22;23275;48.914;12.566;2023-01-15T03:25:26;5.20;99.90
37410;DHT22;23275;48.914;12.566;2023-01-15T03:27:57;5.20;99.90
37410;DHT22;23275;48.914;12.566;2023-01-15T03:30:24;5.20;99.90
37410;DHT22;23275;48.914;12.566;2023-01-15T03:32:51;5.30;99.90
37410;DHT22;23275;48.914;12.566;2023-01-15T03:35:50;5.20;99.90
37410;DHT22;23275;48.914;12.566;2023-01-15T03:38:19;5.30;99.90
37410;DHT22;23275;48.914;12.566;2023-01-15T03:40:57;5.30;99.90
37410;DHT22;23275;48.914;12.566;2023-01-15T03:43:45;5.30;99.90
37410;DHT22;23275;48.914;12.566;2023-01-15T03:47:07;5.30;99.90
37410;DHT22;23275;48.914;12.566;2023-01-15T03:49:27;5.30;99.90
37410;DHT22;23275;48.914;12.566;2023-01-15T03:57:58;5.30;99.90
37410;DHT22;23275;48.914;12.566;2023-01-15T04:00:35;5.20;99.90
37410;DHT22;23275;48.914;12.566;2023-01-15T04:03:06;5.30;99.90
37410;DHT22;23275;48.914;12.566;2023-01-15T04:05:33;5.20;99.90
37410;DHT22;23275;48.914;12.566;2023-01-15T04:08:02;5.20;99.90
37410;DHT22;23275;48.914;12.566;2023-01-15T04:10:28;5.20;99.90
37410;DHT22;23275;48.914;12.566;2023-01-15T04:12:53;5.20;99.90
37410;DHT22;23275;48.914;12.566;2023-01-15T04:15:19;5.20;99.90
37410;DHT22;23275;48.914;12.566;2023-01-15T04:17:44;5.10;99.90
37410;DHT22;23275;48.914;12.566;2023-01-15T04:20:11;5.20;99.90
37410;DHT22;23275;48.914;12.566;2023-01-15T04:22:37;5.20;99.90
37410;DHT22;23275;48.914;12.566;2023-01-15T04:25:04;5.20;99.90
37410;DHT22;23275;48.914;12.566;2023-01-15T04:27:30;5.20;99.90
37410;DHT22;23275;48.914;12.566;2023-01-15T04:29:56;5.20;99.90
37410;DHT22;23275;48.914;12.566;2023-01-15T04:32:21;5.20;99.90
37410;DHT22;23275;48.914;12.566;2023-01-15T04:34:47;5.20;99.90
37410;DHT22;23275;48.914;12.566;2023-01-15T04:37:13;5.20;99.90
37410;DHT22;23275;48.914;12.566;2023-01-15T04:39:39;5.20;99.90
37410;DHT22;23275;48.914;12.566;2023-01-15T04:42:05;5.30;99.90
37410;DHT22;23275;48.914;12.566;2023-01-15T04:44:49;5.20;99.90
37410;DHT22;23275;48.914;12.566;2023-01-15T04:47:14;5.20;99.90
37410;DHT22;23275;48.914;12.566;2023-01-15T04:49:40;5.20;99.90
37410;DHT22;23275;48.914;12.566;2023-01-15T04:52:05;5.20;99.90
37410;DHT22;23275;48.914;12.566;2023-01-15T04:54:31;5.20;99.90
37410;DHT22;23275;48.914;12.566;2023-01-15T04:56:57;5.20;99.90
37410;DHT22;23275;48.914;12.566;2023-01-15T04:59:25;5.20;99.90
37410;DHT22;23275;48.914;12.566;2023-01-15T05:01:51;5.20;99.90
37410;DHT22;23275;48.914;12.566;2023-01-15T05:04:17;5.20;99.90
37410;DHT22;23275;48.914;12.566;2023-01-15T05:06:43;5.20;99.90
37410;DHT22;23275;48.914;12.566;2023-01-15T05:09:09;5.20;99.90
37410;DHT22;23275;48.914;12.566;2023-01-15T05:11:36;5.30;99.90
37410;DHT22;23275;48.914;12.566;2023-01-15T05:14:02;5.30;99.90
37410;DHT22;23275;48.914;12.566;2023-01-15T05:16:28;5.30;99.90
37410;DHT22;23275;48.914;12.566;2023-01-15T05:18:58;5.40;99.90
37410;DHT22;23275;48.914;12.566;2023-01-15T05:21:27;5.40;99.90
37410;DHT22;23275;48.914;12.566;2023-01-15T05:23:54;5.40;99.90
37410;DHT22;23275;48.914;12.566;2023-01-15T05:26:21;5.40;99.90
37410;DHT22;23275;48.914;12.566;2023-01-15T05:28:48;5.40;99.90
37410;DHT22;23275;48.914;12.566;2023-01-15T05:31:15;5.40;99.90
37410;DHT22;23275;48.914;12.566;2023-01-15T05:33:42;5.40;99.90
37410;DHT22;23275;48.914;12.566;2023-01-15T05:36:13;5.30;99.90
37410;DHT22;23275;48.914;12.566;2023-01-15T05:38:40;5.30;99.90
37410;DHT22;23275;48.914;12.566;2023-01-15T05:41:07;5.30;99.90
37410;DHT22;23275;48.914;12.566;2023-01-15T05:43:53;5.30;99.90
37410;DHT22;23275;48.914;12.566;2023-01-15T05:46:19;5.30;99.90
37410;DHT22;23275;48.914;12.566;2023-01-15T05:48:45;5.20;99.90
37410;DHT22;23275;48.914;12.566;2023-01-15T05:51:11;5.20;99.90
37410;DHT22;23275;48.914;12.566;2023-01-15T05:53:36;5.20;99.90
37410;DHT22;23275;48.914;12.566;2023-01-15T05:56:02;5.20;99.90
37410;DHT22;23275;48.914;12.566;2023-01-15T05:58:28;5.20;99.90
37410;DHT22;23275;48.914;12.566;2023-01-15T06:00:53;5.20;99.90
37410;DHT22;23275;48.914;12.566;2023-01-15T06:03:24;5.20;99.90
37410;DHT22;23275;48.914;12.566;2023-01-15T06:05:51;5.20;99.90
37410;DHT22;23275;48.914;12.566;2023-01-15T06:08:17;5.30;99.90
37410;DHT22;23275;48.914;12.566;2023-01-15T06:10:46;5.30;99.90
37410;DHT22;23275;48.914;12.566;2023-01-15T06:13:12;5.20;99.90
37410;DHT22;23275;48.914;12.566;2023-01-15T06:15:38;5.20;99.90
37410;DHT22;23275;48.914;12.566;2023-01-15T06:18:03;5.20;99.90
37410;DHT22;23275;48.914;12.566;2023-01-15T06:20:29;5.20;99.90
37410;DHT22;23275;48.914;12.566;2023-01-15T06:22:55;5.20;99.90
37410;DHT22;23275;48.914;12.566;2023-01-15T06:25:20;5.20;99.90
37410;DHT22;23275;48.914;12.566;2023-01-15T06:27:46;5.20;99.90
37410;DHT22;23275;48.914;12.566;2023-01-15T06:30:14;5.20;99.90
37410;DHT22;23275;48.914;12.566;2023-01-15T06:32:40;5.20;99.90
37410;DHT22;23275;48.914;12.566;2023-01-15T06:35:06;5.20;99.90
37410;DHT22;23275;48.914;12.566;2023-01-15T06:37:32;5.20;99.90
37410;DHT22;23275;48.914;12.566;2023-01-15T06:39:57;5.20;99.90
37410;DHT22;23275;48.914;12.566;2023-01-15T06:42:23;5.20;99.90
37410;DHT22;23275;48.914;12.566;2023-01-15T06:45:09;5.20;99.90
37410;DHT22;23275;48.914;12.566;2023-01-15T06:47:54;5.20;99.90
37410;DHT22;23275;48.914;12.566;2023-01-15T06:50:20;5.20;99.90
37410;DHT22;23275;48.914;12.566;2023-01-15T06:52:45;5.20;99.90
37410;DHT22;23275;48.914;12.566;2023-01-15T06:55:11;5.20;99.90
37410;DHT22;23275;48.914;12.566;2023-01-15T06:57:39;5.20;99.90
37410;DHT22;23275;48.914;12.566;2023-01-15T07:00:07;5.20;99.90
37410;DHT22;23275;48.914;12.566;2023-01-15T07:02:33;5.20;99.90
37410;DHT22;23275;48.914;12.566;2023-01-15T07:04:58;5.20;99.90
37410;DHT22;23275;48.914;12.566;2023-01-15T07:07:26;5.20;99.90
37410;DHT22;23275;48.914;12.566;2023-01-15T07:09:51;5.20;99.90
37410;DHT22;23275;48.914;12.566;2023-01-15T07:12:17;5.20;99.90
37410;DHT22;23275;48.914;12.566;2023-01-15T07:14:43;5.20;99.90
37410;DHT22;23275;48.914;12.566;2023-01-15T07:17:09;5.20;99.90
37410;DHT22;23275;48.914;12.566;2023-01-15T07:19:35;5.20;99.90
37410;DHT22;23275;48.914;12.566;2023-01-15T07:22:01;5.20;99.90
37410;DHT22;23275;48.914;12.566;2023-01-15T07:24:26;5.20;99.90
37410;DHT22;23275;48.914;12.566;2023-01-15T07:26:52;5.20;99.90
37410;DHT22;23275;48.914;12.566;2023-01-15T07:29:17;5.30;99.90
37410;DHT22;23275;48.914;12.566;2023-01-15T07:31:43;5.30;99.90
37410;DHT22;23275;48.914;12.566;2023-01-15T07:34:09;5.30;99.90
37410;DHT22;23275;48.914;12.566;2023-01-15T07:36:35;5.30;99.90
37410;DHT22;23275;48.914;12.566;2023-01-15T07:39:03;5.30;99.90
37410;DHT22;23275;48.914;12.566;2023-01-15T07:41:29;5.30;99.90
37410;DHT22;23275;48.914;12.566;2023-01-15T07:44:13;5.30;99.90
37410;DHT22;23275;48.914;12.566;2023-01-15T07:46:57;5.30;99.90
37410;DHT22;23275;48.914;12.566;2023-01-15T07:49:42;5.30;99.90
37410;DHT22;23275;48.914;12.566;2023-01-15T07:52:18;5.30;99.90
37410;DHT22;23275;48.914;12.566;2023-01-15T07:54:48;5.30;99.90
37410;DHT22;23275;48.914;12.566;2023-01-15T07:57:15;5.30;99.90
37410;DHT22;23275;48.914;12.566;2023-01-15T07:59:42;5.30;99.90
37410;DHT22;23275;48.914;12.566;2023-01-15T08:02:07;5.40;99.90
37410;DHT22;23275;48.914;12.566;2023-01-15T08:04:33;5.40;99.90
37410;DHT22;23275;48.914;12.566;2023-01-15T08:07:00;5.40;99.90
37410;DHT22;23275;48.914;12.566;2023-01-15T08:09:26;5.50;99.90
37410;DHT22;23275;48.914;12.566;2023-01-15T08:11:52;5.50;99.90
37410;DHT22;23275;48.914;12.566;2023-01-15T08:14:36;5.50;99.90
37410;DHT22;23275;48.914;12.566;2023-01-15T08:17:20;5.50;99.90
37410;DHT22;23275;48.914;12.566;2023-01-15T08:19:46;5.50;99.90
37410;DHT22;23275;48.914;12.566;2023-01-15T08:22:11;5.60;99.90
37410;DHT22;23275;48.914;12.566;2023-01-15T08:24:37;5.60;99.90
37410;DHT22;23275;48.914;12.566;2023-01-15T08:27:03;5.60;99.90
37410;DHT22;23275;48.914;12.566;2023-01-15T08:29:28;5.60;99.90
37410;DHT22;23275;48.914;12.566;2023-01-15T08:31:54;5.60;99.90
37410;DHT22;23275;48.914;12.566;2023-01-15T08:34:20;5.70;99.90
37410;DHT22;23275;48.914;12.566;2023-01-15T08:36:45;5.70;99.90
37410;DHT22;23275;48.914;12.566;2023-01-15T08:39:11;5.70;99.90
37410;DHT22;23275;48.914;12.566;2023-01-15T08:41:37;5.80;99.90
37410;DHT22;23275;48.914;12.566;2023-01-15T08:44:02;5.80;99.90
37410;DHT22;23275;48.914;12.566;2023-01-15T08:46:28;5.80;99.90
37410;DHT22;23275;48.914;12.566;2023-01-15T08:48:53;5.80;99.90
37410;DHT22;23275;48.914;12.566;2023-01-15T08:51:19;5.90;99.90
37410;DHT22;23275;48.914;12.566;2023-01-15T08:53:45;5.90;99.90
37410;DHT22;23275;48.914;12.566;2023-01-15T08:56:15;6.00;99.90
37410;DHT22;23275;48.914;12.566;2023-01-15T08:58:41;6.10;99.90
37410;DHT22;23275;48.914;12.566;2023-01-15T09:01:08;6.10;99.90
37410;DHT22;23275;48.914;12.566;2023-01-15T09:03:35;6.20;99.90
37410;DHT22;23275;48.914;12.566;2023-01-15T09:06:01;6.20;99.90
37410;DHT22;23275;48.914;12.566;2023-01-15T09:08:28;6.20;99.90
37410;DHT22;23275;48.914;12.566;2023-01-15T09:10:58;6.20;99.90
37410;DHT22;23275;48.914;12.566;2023-01-15T09:13:24;6.20;99.90
37410;DHT22;23275;48.914;12.566;2023-01-15T09:15:50;6.20;99.90
37410;DHT22;23275;48.914;12.566;2023-01-15T09:18:16;6.30;99.90
37410;DHT22;23275;48.914;12.566;2023-01-15T09:20:47;6.30;99.90
37410;DHT22;23275;48.914;12.566;2023-01-15T09:23:13;6.40;99.90
37410;DHT22;23275;48.914;12.566;2023-01-15T09:25:39;6.40;99.90
37410;DHT22;23275;48.914;12.566;2023-01-15T09:28:05;6.50;99.90
37410;DHT22;23275;48.914;12.566;2023-01-15T09:30:31;6.50;99.90
37410;DHT22;23275;48.914;12.566;2023-01-15T09:32:56;6.50;99.90
37410;DHT22;23275;48.914;12.566;2023-01-15T09:35:22;6.50;99.90
37410;DHT22;23275;48.914;12.566;2023-01-15T09:37:51;6.50;99.90
37410;DHT22;23275;48.914;12.566;2023-01-15T09:46:17;6.50;99.90
37410;DHT22;23275;48.914;12.566;2023-01-15T09:49:09;6.60;99.90
37410;DHT22;23275;48.914;12.566;2023-01-15T09:56:46;6.70;99.90
37410;DHT22;23275;48.914;12.566;2023-01-15T09:59:24;6.70;99.90
37410;DHT22;23275;48.914;12.566;2023-01-15T10:01:52;6.80;99.90
37410;DHT22;23275;48.914;12.566;2023-01-15T10:07:32;6.90;99.90
37410;DHT22;23275;48.914;12.566;2023-01-15T10:10:08;7.10;99.90
37410;DHT22;23275;48.914;12.566;2023-01-15T10:12:35;7.10;99.90
37410;DHT22;23275;48.914;12.566;2023-01-15T10:15:43;7.10;99.90
37410;DHT22;23275;48.914;12.566;2023-01-15T10:18:16;7.40;99.90
37410;DHT22;23275;48.914;12.566;2023-01-15T10:23:56;8.00;99.90
37410;DHT22;23275;48.914;12.566;2023-01-15T10:26:34;8.10;99.90
37410;DHT22;23275;48.914;12.566;2023-01-15T10:29:15;8.10;99.90
37410;DHT22;23275;48.914;12.566;2023-01-15T10:31:50;8.20;99.90
37410;DHT22;23275;48.914;12.566;2023-01-15T10:37:14;8.10;99.90
37410;DHT22;23275;48.914;12.566;2023-01-15T10:45:43;7.90;99.90
37410;DHT22;23275;48.914;12.566;2023-01-15T10:48:37;7.90;99.90
37410;DHT22;23275;48.914;12.566;2023-01-15T10:51:17;7.80;99.90
37410;DHT22;23275;48.914;12.566;2023-01-15T10:53:51;7.80;99.90
37410;DHT22;23275;48.914;12.566;2023-01-15T10:56:32;7.80;99.90
37410;DHT22;23275;48.914;12.566;2023-01-15T10:59:15;7.80;99.90
37410;DHT22;23275;48.914;12.566;2023-01-15T11:01:43;7.90;99.90
37410;DHT22;23275;48.914;12.566;2023-01-15T11:04:10;7.90;99.90
37410;DHT22;23275;48.914;12.566;2023-01-15T11:06:38;8.00;99.90
37410;DHT22;23275;48.914;12.566;2023-01-15T11:09:04;8.10;99.90
37410;DHT22;23275;48.914;12.566;2023-01-15T11:11:48;8.10;99.90
37410;DHT22;23275;48.914;12.566;2023-01-15T11:14:43;8.20;99.90
37410;DHT22;23275;48.914;12.566;2023-01-15T11:17:44;8.10;99.90
37410;DHT22;23275;48.914;12.566;2023-01-15T11:20:30;8.10;99.90
37410;DHT22;23275;48.914;12.566;2023-01-15T11:23:08;8.10;99.90
37410;DHT22;23275;48.914;12.566;2023-01-15T11:25:35;8.10;99.90
37410;DHT22;23275;48.914;12.566;2023-01-15T11:28:05;8.10;99.90
37410;DHT22;23275;48.914;12.566;2023-01-15T11:30:36;8.10;99.90
37410;DHT22;23275;48.914;12.566;2023-01-15T11:33:15;8.10;99.90
37410;DHT22;23275;48.914;12.566;2023-01-15T11:35:50;8.00;99.90
37410;DHT22;23275;48.914;12.566;2023-01-15T11:38:16;8.00;99.90
37410;DHT22;23275;48.914;12.566;2023-01-15T11:43:24;8.20;99.90
37410;DHT22;23275;48.914;12.566;2023-01-15T11:46:30;8.20;99.90
37410;DHT22;23275;48.914;12.566;2023-01-15T11:49:20;8.30;99.90
37410;DHT22;23275;48.914;12.566;2023-01-15T11:52:18;8.40;99.90
37410;DHT22;23275;48.914;12.566;2023-01-15T11:54:47;8.40;99.90
37410;DHT22;23275;48.914;12.566;2023-01-15T11:57:27;8.40;99.90
37410;DHT22;23275;48.914;12.566;2023-01-15T11:59:54;8.30;99.90
37410;DHT22;23275;48.914;12.566;2023-01-15T12:05:22;8.10;99.90
37410;DHT22;23275;48.914;12.566;2023-01-15T12:07:50;8.10;99.90
37410;DHT22;23275;48.914;12.566;2023-01-15T12:10:23;8.00;99.90
37410;DHT22;23275;48.914;12.566;2023-01-15T12:35:37;7.80;99.90
37410;DHT22;23275;48.914;12.566;2023-01-15T12:38:19;7.60;99.90
37410;DHT22;23275;48.914;12.566;2023-01-15T12:40:55;7.60;99.90
37410;DHT22;23275;48.914;12.566;2023-01-15T12:43:25;7.50;99.90
37410;DHT22;23275;48.914;12.566;2023-01-15T12:46:14;7.50;99.90
37410;DHT22;23275;48.914;12.566;2023-01-15T12:51:43;7.30;99.90
37410;DHT22;23275;48.914;12.566;2023-01-15T12:54:14;7.20;99.90
37410;DHT22;23275;48.914;12.566;2023-01-15T12:56:48;7.20;99.90
37410;DHT22;23275;48.914;12.566;2023-01-15T12:59:24;7.20;99.90
37410;DHT22;23275;48.914;12.566;2023-01-15T13:02:13;7.10;99.90
37410;DHT22;23275;48.914;12.566;2023-01-15T13:05:07;7.10;99.90
37410;DHT22;23275;48.914;12.566;2023-01-15T13:07:57;7.00;99.90
37410;DHT22;23275;48.914;12.566;2023-01-15T13:10:27;6.90;99.90
37410;DHT22;23275;48.914;12.566;2023-01-15T13:15:59;6.90;99.90
37410;DHT22;23275;48.914;12.566;2023-01-15T13:18:40;6.80;99.90
37410;DHT22;23275;48.914;12.566;2023-01-15T13:21:14;6.80;99.90
37410;DHT22;23275;48.914;12.566;2023-01-15T13:29:17;6.80;99.90
37410;DHT22;23275;48.914;12.566;2023-01-15T13:31:56;6.70;99.90
37410;DHT22;23275;48.914;12.566;2023-01-15T13:37:28;6.80;99.90
37410;DHT22;23275;48.914;12.566;2023-01-15T13:42:51;6.70;99.90
37410;DHT22;23275;48.914;12.566;2023-01-15T13:48:07;6.70;99.90
37410;DHT22;23275;48.914;12.566;2023-01-15T13:50:41;6.70;99.90
37410;DHT22;23275;48.914;12.566;2023-01-15T13:53:21;6.70;99.90
37410;DHT22;23275;48.914;12.566;2023-01-15T13:55:52;6.70;99.90
37410;DHT22;23275;48.914;12.566;2023-01-15T13:58:28;6.60;99.90
37410;DHT22;23275;48.914;12.566;2023-01-15T14:01:41;6.60;99.90
37410;DHT22;23275;48.914;12.566;2023-01-15T14:06:41;6.60;99.90
37410;DHT22;23275;48.914;12.566;2023-01-15T14:14:53;6.70;99.90
37410;DHT22;23275;48.914;12.566;2023-01-15T14:17:50;6.60;99.90
37410;DHT22;23275;48.914;12.566;2023-01-15T14:34:15;6.30;99.90
37410;DHT22;23275;48.914;12.566;2023-01-15T14:36:49;6.30;99.90
37410;DHT22;23275;48.914;12.566;2023-01-15T14:39:46;6.20;99.90
37410;DHT22;23275;48.914;12.566;2023-01-15T14:42:14;6.20;99.90
37410;DHT22;23275;48.914;12.566;2023-01-15T14:45:07;6.20;99.90
37410;DHT22;23275;48.914;12.566;2023-01-15T14:47:55;6.10;99.90
37410;DHT22;23275;48.914;12.566;2023-01-15T14:50:41;6.10;99.90
37410;DHT22;23275;48.914;12.566;2023-01-15T14:58:50;6.00;99.90
37410;DHT22;23275;48.914;12.566;2023-01-15T15:01:54;6.00;99.90
37410;DHT22;23275;48.914;12.566;2023-01-15T15:12:47;5.80;99.90
37410;DHT22;23275;48.914;12.566;2023-01-15T15:15:22;5.80;99.90
37410;DHT22;23275;48.914;12.566;2023-01-15T15:18:16;5.80;99.90
37410;DHT22;23275;48.914;12.566;2023-01-15T15:26:04;5.60;99.90
37410;DHT22;23275;48.914;12.566;2023-01-15T15:28:31;5.60;99.90
37410;DHT22;23275;48.914;12.566;2023-01-15T15:30:59;5.60;99.90
37410;DHT22;23275;48.914;12.566;2023-01-15T15:33:31;5.60;99.90
37410;DHT22;23275;48.914;12.566;2023-01-15T15:36:00;5.60;99.90
37410;DHT22;23275;48.914;12.566;2023-01-15T15:38:26;5.50;99.90
37410;DHT22;23275;48.914;12.566;2023-01-15T15:40:55;5.50;99.90
37410;DHT22;23275;48.914;12.566;2023-01-15T15:43:27;5.50;99.90
37410;DHT22;23275;48.914;12.566;2023-01-15T15:46:26;5.50;99.90
37410;DHT22;23275;48.914;12.566;2023-01-15T15:49:11;5.50;99.90
37410;DHT22;23275;48.914;12.566;2023-01-15T15:51:49;5.40;99.90
37410;DHT22;23275;48.914;12.566;2023-01-15T15:54:20;5.40;99.90
37410;DHT22;23275;48.914;12.566;2023-01-15T15:57:07;5.40;99.90
37410;DHT22;23275;48.914;12.566;2023-01-15T16:04:50;5.30;99.90
37410;DHT22;23275;48.914;12.566;2023-01-15T16:07:28;5.20;99.90
37410;DHT22;23275;48.914;12.566;2023-01-15T16:10:01;5.20;99.90
37410;DHT22;23275;48.914;12.566;2023-01-15T16:12:30;5.10;99.90
37410;DHT22;23275;48.914;12.566;2023-01-15T16:14:58;5.00;99.90
37410;DHT22;23275;48.914;12.566;2023-01-15T16:17:24;5.00;99.90
37410;DHT22;23275;48.914;12.566;2023-01-15T16:19:55;4.90;99.90
37410;DHT22;23275;48.914;12.566;2023-01-15T16:22:21;4.90;99.90
37410;DHT22;23275;48.914;12.566;2023-01-15T16:24:57;4.80;99.90
37410;DHT22;23275;48.914;12.566;2023-01-15T16:27:31;4.80;99.90
37410;DHT22;23275;48.914;12.566;2023-01-15T16:29:58;4.80;99.90
37410;DHT22;23275;48.914;12.566;2023-01-15T16:32:29;4.80;99.90
37410;DHT22;23275;48.914;12.566;2023-01-15T16:35:20;4.70;99.90
37410;DHT22;23275;48.914;12.566;2023-01-15T16:37:49;4.70;99.90
37410;DHT22;23275;48.914;12.566;2023-01-15T16:40:29;4.60;99.90
37410;DHT22;23275;48.914;12.566;2023-01-15T16:43:13;4.50;99.90
37410;DHT22;23275;48.914;12.566;2023-01-15T16:50:47;4.50;99.90
37410;DHT22;23275;48.914;12.566;2023-01-15T16:55:59;4.40;99.90
37410;DHT22;23275;48.914;12.566;2023-01-15T16:58:37;4.40;99.90
37410;DHT22;23275;48.914;12.566;2023-01-15T17:01:36;4.40;99.90
37410;DHT22;23275;48.914;12.566;2023-01-15T17:04:03;4.30;99.90
37410;DHT22;23275;48.914;12.566;2023-01-15T17:06:41;4.30;99.90
37410;DHT22;23275;48.914;12.566;2023-01-15T17:09:12;4.30;99.90
37410;DHT22;23275;48.914;12.566;2023-01-15T17:11:40;4.30;99.90
37410;DHT22;23275;48.914;12.566;2023-01-15T17:14:15;4.40;99.90
37410;DHT22;23275;48.914;12.566;2023-01-15T17:16:43;4.40;99.90
37410;DHT22;23275;48.914;12.566;2023-01-15T17:19:09;4.40;99.90
37410;DHT22;23275;48.914;12.566;2023-01-15T17:21:36;4.50;99.90
37410;DHT22;23275;48.914;12.566;2023-01-15T17:24:04;4.50;99.90
37410;DHT22;23275;48.914;12.566;2023-01-15T17:26:31;4.50;99.90
37410;DHT22;23275;48.914;12.566;2023-01-15T17:28:57;4.50;99.90
37410;DHT22;23275;48.914;12.566;2023-01-15T17:33:49;4.50;99.90
37410;DHT22;23275;48.914;12.566;2023-01-15T17:36:16;4.50;99.90
37410;DHT22;23275;48.914;12.566;2023-01-15T17:38:42;4.40;99.90
37410;DHT22;23275;48.914;12.566;2023-01-15T17:41:12;4.40;99.90
37410;DHT22;23275;48.914;12.566;2023-01-15T17:43:37;4.50;99.90
37410;DHT22;23275;48.914;12.566;2023-01-15T17:46:03;4.40;99.90
37410;DHT22;23275;48.914;12.566;2023-01-15T17:48:29;4.40;99.90
37410;DHT22;23275;48.914;12.566;2023-01-15T17:50:54;4.30;99.90
37410;DHT22;23275;48.914;12.566;2023-01-15T17:53:21;4.30;99.90
37410;DHT22;23275;48.914;12.566;2023-01-15T17:55:46;4.20;99.90
37410;DHT22;23275;48.914;12.566;2023-01-15T17:58:31;4.10;99.90
37410;DHT22;23275;48.914;12.566;2023-01-15T18:01:20;4.10;99.90
37410;DHT22;23275;48.914;12.566;2023-01-15T18:04:15;4.10;99.90
37410;DHT22;23275;48.914;12.566;2023-01-15T18:07:00;4.20;99.90
37410;DHT22;23275;48.914;12.566;2023-01-15T18:09:27;4.10;99.90
37410;DHT22;23275;48.914;12.566;2023-01-15T18:11:53;4.20;99.90
37410;DHT22;23275;48.914;12.566;2023-01-15T18:14:18;4.10;99.90
37410;DHT22;23275;48.914;12.566;2023-01-15T18:16:44;4.10;99.90
37410;DHT22;23275;48.914;12.566;2023-01-15T18:19:09;4.10;99.90
37410;DHT22;23275;48.914;12.566;2023-01-15T18:21:37;4.10;99.90
37410;DHT22;23275;48.914;12.566;2023-01-15T18:24:03;4.10;99.90
37410;DHT22;23275;48.914;12.566;2023-01-15T18:26:28;4.10;99.90